createdAt,value
2023-04-27T00:01:14.421Z,99325.90
2023-04-27T00:03:42.145Z,99324.58
2023-04-27T00:06:11.602Z,99326.73
2023-04-27T00:08:38.220Z,99326.27
2023-04-27T00:11:05.266Z,99330.35
2023-04-27T00:13:31.835Z,99323.79
2023-04-27T00:16:02.532Z,99323.54
2023-04-27T00:18:30.421Z,99327.98
2023-04-27T00:20:57.022Z,99326.67
2023-04-27T00:23:23.673Z,99326.77
2023-04-27T00:25:50.175Z,99325.80
2023-04-27T00:28:16.818Z,99326.02
2023-04-27T00:30:44.495Z,99323.79
2023-04-27T00:33:11.110Z,99322.24
2023-04-27T00:35:37.591Z,99324.55
2023-04-27T00:38:04.095Z,99324.91
2023-04-27T00:40:30.770Z,99325.46
2023-04-27T00:42:57.275Z,99324.26
2023-04-27T00:45:25.145Z,99327.21
2023-04-27T00:47:51.817Z,99326.52
2023-04-27T00:50:27.773Z,99328.95
2023-04-27T00:52:56.046Z,99326.70
2023-04-27T00:55:25.272Z,99325.29
2023-04-27T00:57:51.820Z,99326.34
2023-04-27T01:00:18.454Z,99323.05
2023-04-27T01:02:45.468Z,99322.52
2023-04-27T01:05:12.695Z,99326.16
2023-04-27T01:07:40.336Z,99323.23
2023-04-27T01:10:07.991Z,99320.45
2023-04-27T01:12:35.771Z,99322.53
2023-04-27T01:15:06.000Z,99324.80
2023-04-27T01:17:32.579Z,99326.39
2023-04-27T01:19:59.545Z,99326.74
2023-04-27T01:22:26.395Z,99327.10
2023-04-27T01:24:53.359Z,99324.66
2023-04-27T01:27:20.385Z,99328.68
2023-04-27T01:29:46.944Z,99329.94
2023-04-27T01:32:13.618Z,99332.75
2023-04-27T01:34:40.212Z,99330.16
2023-04-27T01:37:06.734Z,99330.70
2023-04-27T01:39:33.288Z,99329.50
2023-04-27T01:42:02.909Z,99330.91
2023-04-27T01:44:29.781Z,99334.56
2023-04-27T01:46:56.318Z,99327.29
2023-04-27T01:49:22.788Z,99332.66
2023-04-27T01:51:49.370Z,99332.86
2023-04-27T01:54:16.301Z,99334.27
2023-04-27T01:56:43.094Z,99334.28
2023-04-27T01:59:09.718Z,99333.08
2023-04-27T02:01:36.285Z,99332.92
2023-04-27T02:04:03.674Z,99336.09
2023-04-27T02:06:30.692Z,99336.64
2023-04-27T02:08:57.325Z,99338.21
2023-04-27T02:11:23.942Z,99340.69
2023-04-27T02:13:50.715Z,99340.04
2023-04-27T02:16:17.441Z,99342.69
2023-04-27T02:18:44.029Z,99344.46
2023-04-27T02:21:11.051Z,99346.59
2023-04-27T02:23:37.725Z,99345.73
2023-04-27T02:26:04.419Z,99349.89
2023-04-27T02:28:31.680Z,99346.77
2023-04-27T02:31:00.842Z,99349.92
2023-04-27T02:33:27.381Z,99349.41
2023-04-27T02:35:53.890Z,99348.58
2023-04-27T02:38:22.175Z,99352.77
2023-04-27T02:40:53.200Z,99351.23
2023-04-27T02:43:20.486Z,99348.13
2023-04-27T02:45:47.337Z,99343.13
2023-04-27T02:48:13.860Z,99344.38
2023-04-27T02:50:41.700Z,99347.88
2023-04-27T02:53:08.693Z,99349.80
2023-04-27T02:55:35.199Z,99350.52
2023-04-27T02:58:01.902Z,99349.66
2023-04-27T03:00:28.805Z,99350.02
2023-04-27T03:02:55.868Z,99350.01
2023-04-27T03:05:25.663Z,99353.30
2023-04-27T03:07:52.222Z,99354.17
2023-04-27T03:10:18.822Z,99354.55
2023-04-27T03:12:45.351Z,99359.42
2023-04-27T03:15:11.839Z,99358.38
2023-04-27T03:17:38.413Z,99360.13
2023-04-27T03:20:09.162Z,99359.78
2023-04-27T03:22:36.485Z,99356.83
2023-04-27T03:25:03.376Z,99354.23
2023-04-27T03:27:30.190Z,99358.39
2023-04-27T03:29:56.641Z,99359.96
2023-04-27T03:32:23.180Z,99358.39
2023-04-27T03:34:49.993Z,99357.19
2023-04-27T03:37:17.376Z,99358.42
2023-04-27T03:39:44.517Z,99360.13
2023-04-27T03:42:11.193Z,99360.98
2023-04-27T03:44:37.750Z,99362.54
2023-04-27T03:47:08.495Z,99365.09
2023-04-27T03:49:35.887Z,99366.08
2023-04-27T03:52:03.011Z,99367.39
2023-04-27T03:54:32.851Z,99370.77
2023-04-27T03:56:59.420Z,99374.52
2023-04-27T03:59:29.472Z,99374.98
2023-04-27T04:04:24.037Z,99380.46
2023-04-27T04:06:50.924Z,99382.64
2023-04-27T04:09:17.440Z,99383.67
2023-04-27T04:11:44.037Z,99385.50
2023-04-27T04:14:11.928Z,99387.62
2023-04-27T04:16:39.989Z,99383.27
2023-04-27T04:19:06.680Z,99386.73
2023-04-27T04:21:33.330Z,99388.70
2023-04-27T04:23:59.829Z,99388.88
2023-04-27T04:26:26.684Z,99391.06
2023-04-27T04:28:53.314Z,99392.59
2023-04-27T04:31:21.372Z,99396.61
2023-04-27T04:33:48.219Z,99398.16
2023-04-27T04:36:15.284Z,99396.78
2023-04-27T04:38:41.835Z,99397.50
2023-04-27T04:41:09.985Z,99399.30
2023-04-27T04:43:36.917Z,99399.60
2023-04-27T04:46:05.797Z,99401.06
2023-04-27T04:48:34.306Z,99404.77
2023-04-27T04:51:00.857Z,99401.88
2023-04-27T04:53:28.968Z,99400.14
2023-04-27T04:55:55.861Z,99399.30
2023-04-27T04:58:22.390Z,99396.88
2023-04-27T05:00:48.924Z,99402.09
2023-04-27T05:03:16.055Z,99403.20
2023-04-27T05:05:42.697Z,99406.96
2023-04-27T05:08:09.253Z,99409.63
2023-04-27T05:10:35.812Z,99405.80
2023-04-27T05:13:02.372Z,99405.91
2023-04-27T05:15:29.035Z,99404.96
2023-04-27T05:17:55.516Z,99401.77
2023-04-27T05:20:22.102Z,99398.23
2023-04-27T05:22:48.650Z,99397.21
2023-04-27T05:25:15.252Z,99399.64
2023-04-27T05:27:42.071Z,99403.98
2023-04-27T05:30:09.056Z,99407.56
2023-04-27T05:32:36.657Z,99410.55
2023-04-27T05:35:04.428Z,99401.77
2023-04-27T05:37:30.986Z,99405.92
2023-04-27T05:39:57.556Z,99408.35
2023-04-27T05:42:24.208Z,99407.67
2023-04-27T05:44:50.723Z,99409.66
2023-04-27T05:47:17.295Z,99409.04
2023-04-27T05:49:44.010Z,99408.38
2023-04-27T05:52:10.467Z,99410.45
2023-04-27T05:54:36.967Z,99406.98
2023-04-27T05:57:03.489Z,99409.17
2023-04-27T05:59:29.988Z,99410.58
2023-04-27T06:01:56.572Z,99408.44
2023-04-27T06:04:23.288Z,99413.86
2023-04-27T06:06:50.078Z,99413.14
2023-04-27T06:09:16.703Z,99414.67
2023-04-27T06:11:44.197Z,99415.23
2023-04-27T06:14:10.707Z,99416.23
2023-04-27T06:16:37.170Z,99413.57
2023-04-27T06:19:03.787Z,99409.76
2023-04-27T06:21:32.905Z,99414.83
2023-04-27T06:24:00.483Z,99413.44
2023-04-27T06:26:27.661Z,99417.82
2023-04-27T06:28:54.376Z,99414.40
2023-04-27T06:31:21.135Z,99413.56
2023-04-27T06:33:47.712Z,99407.02
2023-04-27T06:36:14.196Z,99402.51
2023-04-27T06:38:40.749Z,99402.52
2023-04-27T06:41:07.242Z,99405.63
2023-04-27T06:43:33.808Z,99407.62
2023-04-27T06:46:00.626Z,99412.52
2023-04-27T06:48:27.332Z,99414.36
2023-04-27T06:50:53.993Z,99409.89
2023-04-27T06:53:20.954Z,99414.28
2023-04-27T06:55:48.623Z,99416.70
2023-04-27T06:58:15.407Z,99416.04
2023-04-27T07:00:41.924Z,99411.20
2023-04-27T07:03:08.595Z,99410.67
2023-04-27T07:05:35.352Z,99408.01
2023-04-27T07:08:05.393Z,99407.35
2023-04-27T07:10:33.746Z,99408.11
2023-04-27T07:13:00.268Z,99402.43
2023-04-27T07:15:26.894Z,99404.33
2023-04-27T07:17:53.512Z,99405.44
2023-04-27T07:20:20.322Z,99401.22
2023-04-27T07:22:46.938Z,99400.99
2023-04-27T07:25:13.574Z,99402.24
2023-04-27T07:27:40.865Z,99397.30
2023-04-27T07:30:09.409Z,99400.39
2023-04-27T07:32:38.508Z,99403.08
2023-04-27T07:35:05.620Z,99409.33
2023-04-27T07:37:32.187Z,99409.08
2023-04-27T07:39:59.049Z,99413.66
2023-04-27T07:42:25.551Z,99412.16
2023-04-27T07:44:52.650Z,99411.46
2023-04-27T07:47:19.329Z,99413.38
2023-04-27T07:49:46.547Z,99422.69
2023-04-27T07:52:13.660Z,99423.71
2023-04-27T07:54:40.388Z,99427.44
2023-04-27T07:57:13.509Z,99429.52
2023-04-27T07:59:40.322Z,99430.00
2023-04-27T08:02:17.666Z,99432.59
2023-04-27T08:04:47.274Z,99432.90
2023-04-27T08:07:16.021Z,99436.65
2023-04-27T08:09:42.897Z,99436.92
2023-04-27T08:12:09.469Z,99434.11
2023-04-27T08:14:36.199Z,99437.11
2023-04-27T08:17:02.898Z,99436.52
2023-04-27T08:19:29.546Z,99436.14
2023-04-27T08:21:56.140Z,99429.88
2023-04-27T08:24:23.049Z,99429.98
2023-04-27T08:26:49.656Z,99427.55
2023-04-27T08:29:27.075Z,99430.77
2023-04-27T08:31:57.972Z,99437.10
2023-04-27T08:34:25.074Z,99438.13
2023-04-27T08:36:53.377Z,99435.19
2023-04-27T08:39:20.500Z,99436.20
2023-04-27T08:41:47.028Z,99439.86
2023-04-27T08:44:13.637Z,99439.30
2023-04-27T08:46:40.338Z,99445.56
2023-04-27T08:49:07.045Z,99449.48
2023-04-27T08:51:34.094Z,99448.79
2023-04-27T08:54:00.727Z,99451.92
2023-04-27T08:56:29.705Z,99455.85
2023-04-27T08:58:57.848Z,99450.92
2023-04-27T09:01:25.626Z,99458.27
2023-04-27T09:04:00.256Z,99459.94
2023-04-27T09:06:34.582Z,99459.63
2023-04-27T09:09:03.638Z,99466.39
2023-04-27T09:11:37.739Z,99466.17
2023-04-27T09:14:22.473Z,99464.80
2023-04-27T09:16:57.261Z,99468.97
2023-04-27T09:19:28.830Z,99468.38
2023-04-27T09:22:04.953Z,99466.41
2023-04-27T09:24:31.583Z,99465.94
2023-04-27T09:27:00.179Z,99465.81
2023-04-27T09:29:37.541Z,99466.27
2023-04-27T09:32:16.979Z,99465.54
2023-04-27T09:34:44.491Z,99467.88
2023-04-27T09:37:12.054Z,99471.29
2023-04-27T09:39:39.245Z,99465.30
2023-04-27T09:42:05.808Z,99465.67
2023-04-27T09:44:33.719Z,99467.08
2023-04-27T09:47:00.970Z,99467.88
2023-04-27T09:49:28.567Z,99471.53
2023-04-27T09:51:58.070Z,99471.63
2023-04-27T09:54:29.585Z,99468.73
2023-04-27T09:57:08.698Z,99466.75
2023-04-27T09:59:47.467Z,99468.69
2023-04-27T10:02:25.211Z,99464.87
2023-04-27T10:05:21.334Z,99464.61
2023-04-27T10:07:48.774Z,99463.73
2023-04-27T10:10:17.873Z,99460.16
2023-04-27T10:13:00.619Z,99455.74
2023-04-27T10:15:29.158Z,99452.23
2023-04-27T10:17:59.337Z,99445.45
2023-04-27T10:20:31.172Z,99448.35
2023-04-27T10:22:59.547Z,99448.69
2023-04-27T10:25:29.070Z,99452.42
2023-04-27T10:27:57.585Z,99449.65
2023-04-27T10:30:30.674Z,99449.77
2023-04-27T10:32:59.797Z,99454.95
2023-04-27T10:35:57.329Z,99450.45
2023-04-27T10:38:30.138Z,99443.37
2023-04-27T10:41:02.411Z,99442.75
2023-04-27T10:43:31.555Z,99443.79
2023-04-27T10:46:12.116Z,99444.33
2023-04-27T10:48:40.454Z,99446.29
2023-04-27T10:51:07.367Z,99448.33
2023-04-27T10:53:36.938Z,99446.63
2023-04-27T10:56:06.098Z,99450.06
2023-04-27T10:58:47.550Z,99454.30
2023-04-27T11:01:26.420Z,99449.39
2023-04-27T11:04:00.381Z,99447.40
2023-04-27T11:06:34.254Z,99448.02
2023-04-27T11:09:01.065Z,99451.47
2023-04-27T11:11:27.629Z,99451.95
2023-04-27T11:13:55.346Z,99454.88
2023-04-27T11:16:22.526Z,99455.19
2023-04-27T11:18:49.183Z,99455.71
2023-04-27T11:21:17.911Z,99453.73
2023-04-27T11:23:44.450Z,99456.82
2023-04-27T11:26:13.899Z,99456.33
2023-04-27T11:28:44.415Z,99459.83
2023-04-27T11:31:11.146Z,99463.34
2023-04-27T11:33:39.566Z,99464.33
2023-04-27T11:36:20.542Z,99471.35
2023-04-27T11:38:47.260Z,99474.01
2023-04-27T11:41:14.207Z,99468.87
2023-04-27T11:43:42.633Z,99472.26
2023-04-27T11:46:12.583Z,99468.30
2023-04-27T11:48:39.300Z,99466.90
2023-04-27T11:51:07.106Z,99457.79
2023-04-27T11:53:35.854Z,99448.05
2023-04-27T11:56:07.302Z,99445.93
2023-04-27T11:58:35.504Z,99441.89
2023-04-27T12:01:03.652Z,99442.28
2023-04-27T12:03:31.235Z,99439.02
2023-04-27T12:06:04.051Z,99439.08
2023-04-27T12:08:38.564Z,99441.44
2023-04-27T12:11:05.187Z,99441.20
2023-04-27T12:13:31.766Z,99437.62
2023-04-27T12:15:59.154Z,99437.60
2023-04-27T12:18:27.599Z,99439.93
2023-04-27T12:20:54.129Z,99441.81
2023-04-27T12:23:20.619Z,99447.71
2023-04-27T12:25:47.822Z,99452.47
2023-04-27T12:28:18.332Z,99452.44
2023-04-27T12:30:45.371Z,99448.20
2023-04-27T12:33:11.989Z,99454.65
2023-04-27T12:35:38.648Z,99456.45
2023-04-27T12:38:05.210Z,99451.66
2023-04-27T12:40:32.668Z,99455.54
2023-04-27T12:43:01.017Z,99455.23
2023-04-27T12:45:28.029Z,99450.57
2023-04-27T12:48:03.273Z,99447.25
2023-04-27T12:50:36.141Z,99446.83
2023-04-27T12:53:03.044Z,99442.36
2023-04-27T12:55:32.880Z,99438.86
2023-04-27T12:58:01.436Z,99446.69
2023-04-27T13:00:28.917Z,99444.12
2023-04-27T13:02:55.973Z,99439.76
2023-04-27T13:05:22.676Z,99440.88
2023-04-27T13:07:49.237Z,99440.44
2023-04-27T13:10:15.986Z,99445.45
2023-04-27T13:12:42.910Z,99442.50
2023-04-27T13:15:10.217Z,99440.99
2023-04-27T13:17:36.791Z,99442.23
2023-04-27T13:20:03.672Z,99445.02
2023-04-27T13:22:30.172Z,99438.84
2023-04-27T13:24:57.270Z,99440.10
2023-04-27T13:27:24.979Z,99438.23
2023-04-27T13:29:51.497Z,99437.64
2023-04-27T13:32:18.017Z,99430.67
2023-04-27T13:34:44.790Z,99422.95
2023-04-27T13:37:11.407Z,99433.90
2023-04-27T13:39:37.985Z,99442.02
2023-04-27T13:42:05.031Z,99442.58
2023-04-27T13:44:31.947Z,99436.54
2023-04-27T13:46:58.556Z,99437.91
2023-04-27T13:49:25.254Z,99439.99
2023-04-27T13:51:51.857Z,99442.88
2023-04-27T13:54:19.445Z,99444.76
2023-04-27T13:56:46.006Z,99437.48
2023-04-27T13:59:12.753Z,99440.52
2023-04-27T14:01:39.623Z,99444.88
2023-04-27T14:04:06.699Z,99448.02
2023-04-27T14:06:33.419Z,99449.64
2023-04-27T14:08:59.965Z,99446.85
2023-04-27T14:11:26.565Z,99450.95
2023-04-27T14:13:53.131Z,99450.77
2023-04-27T14:16:20.375Z,99455.37
2023-04-27T14:18:46.928Z,99458.41
2023-04-27T14:21:13.495Z,99453.98
2023-04-27T14:23:40.302Z,99453.09
2023-04-27T14:26:06.861Z,99451.55
2023-04-27T14:28:33.938Z,99445.74
2023-04-27T14:31:00.445Z,99443.01
2023-04-27T14:33:26.944Z,99441.40
2023-04-27T14:35:53.788Z,99443.81
2023-04-27T14:38:20.346Z,99445.11
2023-04-27T14:40:46.901Z,99443.39
2023-04-27T14:43:13.595Z,99443.08
2023-04-27T14:45:51.111Z,99448.80
2023-04-27T14:48:20.919Z,99452.77
2023-04-27T14:50:47.430Z,99454.11
2023-04-27T14:53:14.050Z,99455.23
2023-04-27T14:55:42.725Z,99460.86
2023-04-27T14:58:09.255Z,99460.95
2023-04-27T15:00:35.847Z,99456.44
2023-04-27T15:03:02.589Z,99456.33
2023-04-27T15:05:29.982Z,99452.20
2023-04-27T15:07:56.647Z,99452.52
2023-04-27T15:10:23.120Z,99450.27
2023-04-27T15:12:49.655Z,99451.24
2023-04-27T15:15:16.338Z,99448.46
2023-04-27T15:17:43.012Z,99446.52
2023-04-27T15:20:10.264Z,99446.97
2023-04-27T15:22:36.785Z,99447.50
2023-04-27T15:25:03.866Z,99450.26
2023-04-27T15:27:30.453Z,99450.33
2023-04-27T15:29:57.965Z,99449.77
2023-04-27T15:32:29.189Z,99445.91
2023-04-27T15:34:59.253Z,99449.30
2023-04-27T15:37:27.803Z,99453.95
2023-04-27T15:39:54.836Z,99454.23
2023-04-27T15:42:46.548Z,99454.63
2023-04-27T15:45:13.168Z,99452.42
2023-04-27T15:47:39.826Z,99454.16
2023-04-27T15:50:07.478Z,99455.36
2023-04-27T15:52:33.990Z,99459.02
2023-04-27T15:55:00.700Z,99458.30
2023-04-27T15:57:27.269Z,99457.00
2023-04-27T15:59:53.928Z,99454.13
2023-04-27T16:02:20.664Z,99456.08
2023-04-27T16:04:48.543Z,99452.49
2023-04-27T16:07:15.131Z,99457.70
2023-04-27T16:09:41.766Z,99459.84
2023-04-27T16:12:08.315Z,99453.49
2023-04-27T16:14:34.979Z,99452.36
2023-04-27T16:17:01.707Z,99452.35
2023-04-27T16:19:28.440Z,99454.22
2023-04-27T16:21:55.370Z,99455.32
2023-04-27T16:24:21.965Z,99450.14
2023-04-27T16:26:48.504Z,99452.02
2023-04-27T16:29:15.290Z,99455.78
2023-04-27T16:31:42.467Z,99455.23
2023-04-27T16:34:09.003Z,99450.11
2023-04-27T16:36:36.027Z,99451.11
2023-04-27T16:39:04.345Z,99448.61
2023-04-27T16:41:30.882Z,99451.61
2023-04-27T16:43:57.565Z,99449.95
2023-04-27T16:46:24.169Z,99450.79
2023-04-27T16:48:50.723Z,99450.55
2023-04-27T16:51:17.339Z,99454.27
2023-04-27T16:53:43.857Z,99452.23
2023-04-27T16:56:12.815Z,99449.17
2023-04-27T16:58:39.924Z,99448.04
2023-04-27T17:01:06.522Z,99448.91
2023-04-27T17:03:35.283Z,99448.78
2023-04-27T17:06:02.450Z,99448.60
2023-04-27T17:08:29.084Z,99453.02
2023-04-27T17:10:55.680Z,99449.32
2023-04-27T17:13:22.211Z,99450.61
2023-04-27T17:15:49.984Z,99451.13
2023-04-27T17:18:17.047Z,99447.30
2023-04-27T17:20:43.713Z,99450.06
2023-04-27T17:23:10.446Z,99450.83
2023-04-27T17:25:36.963Z,99454.14
2023-04-27T17:28:03.578Z,99455.66
2023-04-27T17:30:30.402Z,99454.92
2023-04-27T17:32:57.272Z,99454.21
2023-04-27T17:35:24.186Z,99450.67
2023-04-27T17:37:51.199Z,99453.45
2023-04-27T17:40:20.165Z,99453.66
2023-04-27T17:42:46.858Z,99453.02
2023-04-27T17:45:13.357Z,99453.45
2023-04-27T17:47:40.265Z,99452.97
2023-04-27T17:50:08.086Z,99453.17
2023-04-27T17:52:35.083Z,99455.88
2023-04-27T17:55:01.594Z,99453.67
2023-04-27T17:57:28.122Z,99459.23
2023-04-27T17:59:54.724Z,99456.95
2023-04-27T18:02:21.456Z,99462.02
2023-04-27T18:04:48.366Z,99464.81
2023-04-27T18:07:17.805Z,99466.22
2023-04-27T18:09:44.709Z,99470.80
2023-04-27T18:12:11.412Z,99474.49
2023-04-27T18:14:38.095Z,99479.15
2023-04-27T18:17:05.257Z,99478.70
2023-04-27T18:19:31.847Z,99484.15
2023-04-27T18:21:58.607Z,99482.27
2023-04-27T18:24:25.203Z,99485.84
2023-04-27T18:26:51.886Z,99486.91
2023-04-27T18:29:18.799Z,99486.45
2023-04-27T18:31:45.524Z,99487.79
2023-04-27T18:34:12.529Z,99494.63
2023-04-27T18:36:39.241Z,99499.86
2023-04-27T18:39:05.937Z,99501.77
2023-04-27T18:41:32.509Z,99501.64
2023-04-27T18:44:04.251Z,99507.69
2023-04-27T18:46:31.764Z,99515.84
2023-04-27T18:48:58.769Z,99519.98
2023-04-27T18:51:25.749Z,99525.60
2023-04-27T18:53:52.955Z,99526.23
2023-04-27T18:56:19.595Z,99530.63
2023-04-27T18:58:48.110Z,99529.06
2023-04-27T19:01:29.568Z,99532.33
2023-04-27T19:03:57.292Z,99532.97
2023-04-27T19:06:24.654Z,99532.35
2023-04-27T19:08:51.421Z,99533.45
2023-04-27T19:11:21.673Z,99533.80
2023-04-27T19:13:49.901Z,99533.84
2023-04-27T19:16:17.474Z,99538.48
2023-04-27T19:18:44.382Z,99541.76
2023-04-27T19:21:12.959Z,99539.33
2023-04-27T19:23:39.774Z,99539.81
2023-04-27T19:26:12.909Z,99538.69
2023-04-27T19:28:40.514Z,99535.46
2023-04-27T19:31:07.308Z,99533.45
2023-04-27T19:36:56.138Z,99538.77
2023-04-27T19:39:22.714Z,99536.65
2023-04-27T19:41:49.329Z,99540.42
2023-04-27T19:44:16.121Z,99546.99
2023-04-27T19:46:43.102Z,99551.11
2023-04-27T19:49:09.893Z,99552.23
2023-04-27T19:51:36.526Z,99549.53
2023-04-27T19:54:03.260Z,99551.52
2023-04-27T19:56:29.961Z,99551.09
2023-04-27T19:58:56.630Z,99550.10
2023-04-27T20:01:23.183Z,99551.38
2023-04-27T20:03:52.723Z,99551.11
2023-04-27T20:06:21.232Z,99551.04
2023-04-27T20:08:48.779Z,99550.59
2023-04-27T20:11:16.477Z,99551.19
2023-04-27T20:13:43.178Z,99551.30
2023-04-27T20:16:10.064Z,99547.88
2023-04-27T20:18:37.321Z,99549.15
2023-04-27T20:21:04.120Z,99548.39
2023-04-27T20:23:30.865Z,99548.47
2023-04-27T20:25:57.381Z,99541.22
2023-04-27T20:28:24.001Z,99537.84
2023-04-27T20:30:50.583Z,99539.48
2023-04-27T20:33:17.740Z,99547.10
2023-04-27T20:35:46.096Z,99548.23
2023-04-27T20:38:12.886Z,99548.96
2023-04-27T20:40:41.338Z,99554.40
2023-04-27T20:43:08.228Z,99553.61
2023-04-27T20:45:34.937Z,99548.96
2023-04-27T20:48:02.555Z,99546.59
2023-04-27T20:50:29.209Z,99546.59
2023-04-27T20:52:55.760Z,99545.24
2023-04-27T20:55:22.351Z,99542.44
2023-04-27T20:57:48.917Z,99541.24
2023-04-27T21:00:16.390Z,99547.41
2023-04-27T21:02:43.056Z,99545.44
2023-04-27T21:05:09.772Z,99546.27
2023-04-27T21:07:36.396Z,99545.23
2023-04-27T21:10:05.526Z,99543.27
2023-04-27T21:12:33.106Z,99541.98
2023-04-27T21:15:00.706Z,99540.52
2023-04-27T21:17:27.755Z,99538.02
2023-04-27T21:19:55.547Z,99534.64
2023-04-27T21:22:22.298Z,99533.20
2023-04-27T21:24:48.980Z,99535.79
2023-04-27T21:27:15.636Z,99534.20
2023-04-27T21:29:42.168Z,99533.80
2023-04-27T21:32:08.858Z,99533.23
2023-04-27T21:34:35.415Z,99533.70
2023-04-27T21:37:01.977Z,99533.81
2023-04-27T21:39:28.582Z,99536.88
2023-04-27T21:41:55.144Z,99539.38
2023-04-27T21:44:21.673Z,99538.06
2023-04-27T21:46:48.382Z,99536.89
2023-04-27T21:49:15.094Z,99534.81
2023-04-27T21:51:41.699Z,99532.93
2023-04-27T21:54:08.342Z,99527.36
2023-04-27T21:56:34.916Z,99528.61
2023-04-27T21:59:01.474Z,99530.42
2023-04-27T22:01:28.147Z,99528.91
2023-04-27T22:03:55.158Z,99527.41
2023-04-27T22:06:21.987Z,99527.98
2023-04-27T22:08:48.631Z,99524.56
2023-04-27T22:11:15.196Z,99520.95
2023-04-27T22:13:41.934Z,99516.46
2023-04-27T22:16:08.588Z,99521.06
2023-04-27T22:18:35.203Z,99522.15
2023-04-27T22:21:01.869Z,99521.32
2023-04-27T22:23:30.123Z,99522.55
2023-04-27T22:25:56.674Z,99524.31
2023-04-27T22:28:23.323Z,99520.50
2023-04-27T22:30:49.991Z,99523.98
2023-04-27T22:33:16.866Z,99521.38
2023-04-27T22:35:44.207Z,99523.48
2023-04-27T22:38:10.808Z,99522.25
2023-04-27T22:40:37.665Z,99524.33
2023-04-27T22:43:04.315Z,99524.99
2023-04-27T22:45:31.340Z,99523.01
2023-04-27T22:47:57.925Z,99525.22
2023-04-27T22:50:24.533Z,99521.73
2023-04-27T22:52:52.310Z,99524.33
2023-04-27T22:55:18.864Z,99528.73
2023-04-27T22:57:45.515Z,99529.43
2023-04-27T23:00:12.393Z,99532.07
2023-04-27T23:02:40.076Z,99531.67
2023-04-27T23:05:07.285Z,99529.48
2023-04-27T23:07:34.468Z,99522.59
2023-04-27T23:10:02.367Z,99515.36
2023-04-27T23:12:30.136Z,99516.38
2023-04-27T23:14:59.871Z,99517.61
2023-04-27T23:17:32.419Z,99516.92
2023-04-27T23:20:00.946Z,99518.34
2023-04-27T23:22:28.001Z,99518.94
2023-04-27T23:24:54.823Z,99517.55
2023-04-27T23:27:23.910Z,99515.81
2023-04-27T23:29:50.690Z,99513.33
2023-04-27T23:32:17.329Z,99511.75
2023-04-27T23:34:43.912Z,99512.56
2023-04-27T23:37:10.638Z,99514.08
2023-04-27T23:39:37.736Z,99510.74
2023-04-27T23:42:04.554Z,99511.09
2023-04-27T23:44:31.183Z,99511.23
2023-04-27T23:46:57.698Z,99507.92
2023-04-27T23:49:24.223Z,99506.88
2023-04-27T23:51:52.013Z,99504.11
2023-04-27T23:54:18.780Z,99502.81
2023-04-27T23:56:45.490Z,99503.78
2023-04-27T23:59:14.232Z,99500.52
